createdAt,value
2018-06-13T00:01:19.160Z,4.03
2018-06-13T00:03:46.313Z,3.50
2018-06-13T00:06:13.484Z,3.63
2018-06-13T00:08:40.696Z,3.97
2018-06-13T00:11:08.311Z,3.47
2018-06-13T00:13:35.902Z,3.90
2018-06-13T00:16:03.955Z,3.83
2018-06-13T00:18:32.842Z,3.77
2018-06-13T00:21:00.750Z,3.70
2018-06-13T00:23:28.016Z,3.73
2018-06-13T00:25:55.160Z,3.67
2018-06-13T00:28:22.313Z,3.90
2018-06-13T00:30:49.476Z,4.30
2018-06-13T00:33:16.644Z,3.50
2018-06-13T00:35:43.799Z,3.83
2018-06-13T00:38:11.020Z,3.77
2018-06-13T00:40:38.419Z,3.60
2018-06-13T00:43:06.107Z,3.33
2018-06-13T00:45:34.133Z,3.33
2018-06-13T00:48:02.251Z,3.50
2018-06-13T00:50:32.466Z,3.30
2018-06-13T00:53:00.978Z,3.50
2018-06-13T00:55:28.284Z,3.60
2018-06-13T00:57:55.432Z,2.93
2018-06-13T01:00:22.671Z,3.27
2018-06-13T01:02:49.842Z,2.93
2018-06-13T01:05:16.980Z,3.07
2018-06-13T01:07:44.182Z,3.17
2018-06-13T01:10:11.344Z,3.10
2018-06-13T01:12:38.854Z,2.90
2018-06-13T01:15:06.293Z,3.00
2018-06-13T01:17:34.096Z,3.10
2018-06-13T01:20:02.169Z,2.80
2018-06-13T01:22:29.830Z,3.03
2018-06-13T01:24:57.072Z,2.73
2018-06-13T01:27:24.189Z,2.57
2018-06-13T01:29:51.381Z,2.83
2018-06-13T01:32:18.560Z,2.50
2018-06-13T01:34:45.698Z,2.37
2018-06-13T01:37:12.993Z,2.80
2018-06-13T01:39:40.200Z,2.73
2018-06-13T01:42:07.600Z,2.70
2018-06-13T01:44:35.084Z,2.67
2018-06-13T01:47:03.058Z,2.67
2018-06-13T01:49:30.856Z,2.67
2018-06-13T01:51:58.061Z,2.73
2018-06-13T01:54:25.318Z,2.70
2018-06-13T01:56:52.478Z,2.60
2018-06-13T01:59:19.696Z,2.63
2018-06-13T02:01:46.860Z,2.53
2018-06-13T02:04:13.995Z,2.67
2018-06-13T02:06:41.181Z,2.60
2018-06-13T02:09:08.528Z,2.83
2018-06-13T02:11:35.981Z,2.50
2018-06-13T02:14:03.932Z,2.83
2018-06-13T02:16:31.912Z,2.80
2018-06-13T02:18:59.388Z,2.90
2018-06-13T02:21:26.668Z,2.47
2018-06-13T02:23:53.798Z,3.30
2018-06-13T02:26:20.916Z,2.60
2018-06-13T02:28:48.138Z,2.90
2018-06-13T02:31:15.403Z,2.70
2018-06-13T02:33:42.577Z,2.80
2018-06-13T02:36:10.008Z,2.57
2018-06-13T02:38:37.425Z,2.80
2018-06-13T02:41:04.946Z,2.97
2018-06-13T02:43:32.406Z,2.87
2018-06-13T02:46:00.075Z,2.77
2018-06-13T02:48:27.279Z,2.67
2018-06-13T02:50:54.607Z,2.50
2018-06-13T02:53:21.844Z,2.67
2018-06-13T02:55:49.017Z,2.80
2018-06-13T02:58:16.309Z,2.50
2018-06-13T03:00:43.488Z,3.00
2018-06-13T03:03:10.667Z,2.50
2018-06-13T03:05:38.462Z,3.00
2018-06-13T03:08:06.046Z,2.77
2018-06-13T03:10:33.861Z,3.30
2018-06-13T03:13:02.349Z,2.67
2018-06-13T03:15:31.118Z,3.00
2018-06-13T03:17:58.359Z,3.20
2018-06-13T03:20:25.908Z,2.77
2018-06-13T03:22:53.170Z,2.97
2018-06-13T03:25:20.330Z,3.23
2018-06-13T03:27:47.515Z,3.03
2018-06-13T03:30:14.755Z,3.17
2018-06-13T03:32:41.912Z,3.30
2018-06-13T03:35:09.437Z,3.20
2018-06-13T03:37:36.786Z,3.40
2018-06-13T03:40:04.544Z,2.80
2018-06-13T03:42:32.374Z,3.10
2018-06-13T03:44:59.958Z,3.07
2018-06-13T03:47:27.371Z,2.90
2018-06-13T03:49:54.965Z,3.17
2018-06-13T03:52:22.095Z,3.00
2018-06-13T03:54:49.358Z,3.20
2018-06-13T03:57:16.575Z,3.10
2018-06-13T03:59:43.825Z,3.20
2018-06-13T04:02:11.020Z,3.37
2018-06-13T04:04:38.815Z,3.33
2018-06-13T04:07:06.551Z,3.20
2018-06-13T04:09:34.184Z,2.40
2018-06-13T04:12:02.731Z,3.07
2018-06-13T04:14:30.585Z,2.70
2018-06-13T04:16:57.864Z,3.17
2018-06-13T04:19:26.532Z,2.83
2018-06-13T04:21:53.639Z,2.97
2018-06-13T04:24:20.839Z,3.10
2018-06-13T04:26:48.024Z,3.00
2018-06-13T04:29:15.266Z,2.93
2018-06-13T04:31:42.385Z,3.10
2018-06-13T04:34:09.894Z,3.03
2018-06-13T04:36:37.487Z,3.57
2018-06-13T04:39:08.472Z,2.77
2018-06-13T04:41:36.259Z,3.00
2018-06-13T04:44:04.287Z,3.00
2018-06-13T04:46:32.566Z,2.93
2018-06-13T04:49:00.830Z,3.10
2018-06-13T04:51:28.496Z,3.43
2018-06-13T04:53:55.883Z,3.10
2018-06-13T04:56:23.040Z,3.13
2018-06-13T04:58:50.985Z,3.23
2018-06-13T05:01:18.120Z,3.10
2018-06-13T05:03:45.304Z,3.20
2018-06-13T05:06:12.437Z,3.30
2018-06-13T05:08:39.779Z,3.20
2018-06-13T05:11:07.236Z,2.97
2018-06-13T05:13:34.530Z,3.13
2018-06-13T05:16:02.356Z,3.00
2018-06-13T05:18:29.883Z,2.80
2018-06-13T05:20:57.067Z,2.63
2018-06-13T05:23:24.182Z,3.20
2018-06-13T05:25:51.356Z,2.90
2018-06-13T05:28:18.487Z,3.50
2018-06-13T05:30:45.780Z,2.93
2018-06-13T05:33:12.953Z,3.00
2018-06-13T05:35:40.319Z,2.80
2018-06-13T05:38:08.166Z,3.10
2018-06-13T05:40:35.814Z,3.23
2018-06-13T05:43:03.718Z,3.00
2018-06-13T05:45:31.655Z,2.87
2018-06-13T05:47:58.999Z,2.80
2018-06-13T05:50:26.124Z,3.30
2018-06-13T05:52:53.508Z,2.60
2018-06-13T05:55:20.666Z,2.90
2018-06-13T05:57:47.797Z,2.77
2018-06-13T06:00:14.903Z,3.10
2018-06-13T06:02:42.111Z,3.00
2018-06-13T06:05:09.597Z,2.90
2018-06-13T06:07:36.890Z,3.10
2018-06-13T06:10:04.650Z,3.10
2018-06-13T06:12:32.391Z,3.30
2018-06-13T06:15:00.085Z,3.30
2018-06-13T06:17:27.249Z,3.00
2018-06-13T06:19:54.376Z,3.07
2018-06-13T06:22:21.579Z,2.83
2018-06-13T06:24:48.748Z,2.93
2018-06-13T06:27:15.910Z,3.20
2018-06-13T06:29:43.044Z,3.40
2018-06-13T06:32:10.459Z,2.90
2018-06-13T06:34:37.994Z,3.10
2018-06-13T06:37:05.531Z,3.40
2018-06-13T06:39:33.700Z,2.80
2018-06-13T06:42:01.702Z,3.30
2018-06-13T06:44:29.012Z,3.60
2018-06-13T06:46:56.187Z,3.00
2018-06-13T06:49:23.323Z,3.60
2018-06-13T06:51:50.495Z,3.37
2018-06-13T06:54:18.069Z,3.33
2018-06-13T06:56:45.208Z,3.07
2018-06-13T06:59:12.331Z,3.37
2018-06-13T07:01:39.700Z,3.80
2018-06-13T07:04:07.188Z,3.63
2018-06-13T07:06:34.726Z,3.87
2018-06-13T07:09:02.538Z,3.47
2018-06-13T07:11:31.114Z,3.07
2018-06-13T07:13:58.316Z,3.03
2018-06-13T07:16:25.468Z,3.50
2018-06-13T07:18:52.599Z,3.77
2018-06-13T07:21:19.826Z,3.63
2018-06-13T07:23:47.009Z,3.63
2018-06-13T07:26:14.122Z,3.60
2018-06-13T07:28:41.342Z,3.40
2018-06-13T07:31:08.694Z,3.10
2018-06-13T07:33:36.950Z,3.20
2018-06-13T07:36:04.312Z,3.30
2018-06-13T07:38:32.095Z,3.20
2018-06-13T07:40:59.490Z,2.97
2018-06-13T07:43:26.689Z,2.83
2018-06-13T07:45:53.892Z,2.50
2018-06-13T07:48:21.044Z,2.30
2018-06-13T07:50:48.216Z,2.30
2018-06-13T07:53:15.544Z,2.10
2018-06-13T07:55:42.655Z,2.20
2018-06-13T07:58:09.983Z,2.50
2018-06-13T08:00:37.363Z,2.00
2018-06-13T08:03:05.250Z,1.70
2018-06-13T08:05:34.204Z,1.60
2018-06-13T08:08:02.439Z,1.63
2018-06-13T08:10:30.317Z,1.50
2018-06-13T08:12:57.477Z,1.60
2018-06-13T08:15:24.693Z,1.40
2018-06-13T08:17:52.029Z,1.50
2018-06-13T08:20:19.249Z,1.60
2018-06-13T08:22:46.526Z,1.20
2018-06-13T08:25:13.662Z,1.50
2018-06-13T08:27:46.773Z,1.20
2018-06-13T08:30:14.007Z,1.30
2018-06-13T08:32:41.129Z,1.60
2018-06-13T08:35:08.401Z,1.50
2018-06-13T08:37:36.806Z,1.60
2018-06-13T08:40:04.227Z,1.20
2018-06-13T08:42:32.452Z,1.30
2018-06-13T08:45:00.357Z,1.20
2018-06-13T08:47:27.479Z,1.20
2018-06-13T08:49:54.661Z,1.50
2018-06-13T08:52:21.848Z,1.50
2018-06-13T08:54:48.988Z,1.20
2018-06-13T08:57:16.095Z,1.20
2018-06-13T08:59:43.224Z,1.20
2018-06-13T09:02:10.447Z,1.40
2018-06-13T09:04:37.929Z,1.10
2018-06-13T09:07:05.339Z,0.90
2018-06-13T09:09:33.233Z,1.00
2018-06-13T09:12:00.803Z,0.90
2018-06-13T09:14:28.005Z,1.20
2018-06-13T09:16:55.136Z,1.20
2018-06-13T09:19:22.384Z,1.00
2018-06-13T09:21:49.562Z,1.13
2018-06-13T09:24:16.678Z,1.30
2018-06-13T09:26:43.819Z,1.40
2018-06-13T09:29:11.190Z,1.37
2018-06-13T09:31:38.840Z,1.17
2018-06-13T09:34:06.503Z,1.50
2018-06-13T09:36:34.456Z,1.40
2018-06-13T09:39:03.173Z,1.57
2018-06-13T09:41:31.387Z,1.60
2018-06-13T09:43:58.765Z,1.50
2018-06-13T09:46:25.923Z,1.43
2018-06-13T09:48:53.480Z,1.40
2018-06-13T09:51:20.665Z,1.17
2018-06-13T09:53:47.792Z,1.30
2018-06-13T09:56:15.017Z,1.10
2018-06-13T09:58:47.944Z,1.30
2018-06-13T10:01:20.736Z,1.20
2018-06-13T10:03:49.968Z,0.93
2018-06-13T10:06:17.148Z,1.03
2018-06-13T10:08:44.280Z,0.83
2018-06-13T10:11:11.478Z,1.10
2018-06-13T10:13:38.777Z,1.33
2018-06-13T10:16:06.179Z,1.30
2018-06-13T10:18:34.309Z,1.23
2018-06-13T10:21:02.365Z,1.57
2018-06-13T10:23:29.802Z,1.30
2018-06-13T10:25:56.940Z,1.03
2018-06-13T10:28:24.065Z,1.30
2018-06-13T10:30:51.896Z,1.03
2018-06-13T10:33:19.149Z,0.90
2018-06-13T10:35:46.263Z,1.00
2018-06-13T10:38:13.402Z,1.07
2018-06-13T10:40:40.727Z,0.97
2018-06-13T10:43:08.437Z,1.07
2018-06-13T10:45:35.930Z,1.10
2018-06-13T10:48:03.880Z,1.10
2018-06-13T10:50:31.665Z,1.00
2018-06-13T10:52:59.775Z,1.00
2018-06-13T10:55:27.004Z,1.07
2018-06-13T10:57:54.196Z,1.10
2018-06-13T11:00:21.459Z,1.20
2018-06-13T11:02:48.683Z,1.00
2018-06-13T11:05:15.804Z,0.90
2018-06-13T11:07:42.935Z,1.20
2018-06-13T11:10:10.081Z,1.00
2018-06-13T11:12:37.438Z,1.10
2018-06-13T11:15:04.736Z,1.07
2018-06-13T11:17:32.125Z,1.40
2018-06-13T11:20:01.778Z,1.30
2018-06-13T11:22:28.887Z,1.40
2018-06-13T11:24:56.091Z,1.40
2018-06-13T11:27:23.188Z,1.40
2018-06-13T11:29:50.312Z,1.63
2018-06-13T11:32:19.533Z,1.60
2018-06-13T11:34:46.644Z,1.43
2018-06-13T11:37:13.909Z,1.50
2018-06-13T11:39:41.179Z,1.60
2018-06-13T11:42:09.458Z,1.80
2018-06-13T11:44:36.989Z,1.50
2018-06-13T11:47:04.349Z,1.50
2018-06-13T11:49:31.530Z,1.60
2018-06-13T11:51:58.873Z,1.80
2018-06-13T11:54:26.044Z,1.50
2018-06-13T11:56:53.172Z,1.77
2018-06-13T11:59:20.304Z,1.60
2018-06-13T12:01:48.590Z,2.00
2018-06-13T12:04:16.212Z,1.70
2018-06-13T12:06:43.490Z,1.43
2018-06-13T12:09:11.121Z,1.33
2018-06-13T12:11:38.388Z,1.30
2018-06-13T12:14:05.719Z,1.60
2018-06-13T12:16:32.881Z,1.40
2018-06-13T12:19:00.099Z,1.80
2018-06-13T12:21:27.259Z,1.60
2018-06-13T12:23:54.402Z,1.70
2018-06-13T12:26:21.538Z,1.60
2018-06-13T12:28:48.650Z,1.53
2018-06-13T12:31:15.907Z,1.67
2018-06-13T12:33:43.235Z,2.03
2018-06-13T12:36:10.441Z,2.00
2018-06-13T12:38:38.964Z,1.97
2018-06-13T12:41:06.773Z,1.63
2018-06-13T12:43:35.358Z,1.87
2018-06-13T12:46:04.225Z,1.60
2018-06-13T12:48:31.449Z,2.13
2018-06-13T12:50:58.603Z,1.93
2018-06-13T12:53:25.771Z,1.77
2018-06-13T12:55:53.005Z,1.70
2018-06-13T12:58:20.241Z,1.47
2018-06-13T13:00:47.517Z,1.77
2018-06-13T13:03:14.727Z,1.50
2018-06-13T13:05:42.063Z,1.90
2018-06-13T13:08:09.439Z,1.70
2018-06-13T13:10:37.669Z,1.90
2018-06-13T13:13:06.023Z,1.80
2018-06-13T13:15:34.116Z,1.63
2018-06-13T13:18:01.330Z,1.90
2018-06-13T13:20:28.573Z,1.70
2018-06-13T13:22:55.745Z,1.63
2018-06-13T13:25:22.970Z,1.57
2018-06-13T13:27:50.081Z,1.80
2018-06-13T13:30:17.377Z,1.90
2018-06-13T13:32:44.654Z,1.63
2018-06-13T13:35:11.929Z,1.90
2018-06-13T13:37:39.298Z,1.50
2018-06-13T13:40:07.673Z,1.63
2018-06-13T13:42:35.132Z,1.80
2018-06-13T13:45:02.412Z,1.70
2018-06-13T13:47:29.600Z,1.60
2018-06-13T13:49:56.732Z,1.70
2018-06-13T13:52:23.904Z,1.70
2018-06-13T13:54:51.066Z,1.90
2018-06-13T13:57:18.177Z,1.50
2018-06-13T13:59:45.374Z,1.80
2018-06-13T14:02:12.646Z,1.40
2018-06-13T14:04:39.926Z,3.43
2018-06-13T14:07:07.255Z,1.67
2018-06-13T14:09:34.675Z,1.70
2018-06-13T14:12:03.967Z,1.40
2018-06-13T14:14:31.204Z,1.60
2018-06-13T14:16:58.315Z,1.47
2018-06-13T14:19:25.441Z,1.50
2018-06-13T14:21:52.620Z,1.57
2018-06-13T14:24:21.803Z,1.80
2018-06-13T14:26:48.925Z,1.40
2018-06-13T14:29:16.240Z,1.60
2018-06-13T14:31:43.503Z,1.50
2018-06-13T14:34:10.922Z,1.63
2018-06-13T14:36:38.264Z,1.60
2018-06-13T14:39:08.429Z,1.67
2018-06-13T14:41:35.949Z,1.77
2018-06-13T14:44:03.345Z,1.90
2018-06-13T14:46:30.569Z,1.53
2018-06-13T14:48:57.727Z,1.80
2018-06-13T14:51:24.937Z,1.83
2018-06-13T14:53:54.577Z,1.77
2018-06-13T14:56:26.874Z,1.70
2018-06-13T14:58:54.160Z,1.70
2018-06-13T15:01:21.276Z,1.70
2018-06-13T15:03:48.457Z,1.67
2018-06-13T15:06:15.572Z,1.53
2018-06-13T15:08:42.808Z,2.00
2018-06-13T15:11:10.200Z,1.60
2018-06-13T15:13:37.562Z,1.60
2018-06-13T15:16:05.105Z,1.53
2018-06-13T15:18:32.491Z,1.60
2018-06-13T15:20:59.669Z,2.10
2018-06-13T15:23:26.824Z,1.60
2018-06-13T15:25:54.051Z,1.87
2018-06-13T15:28:21.188Z,1.80
2018-06-13T15:30:48.360Z,1.90
2018-06-13T15:33:15.513Z,1.70
2018-06-13T15:35:42.811Z,1.77
2018-06-13T15:38:10.055Z,1.70
2018-06-13T15:40:37.525Z,1.73
2018-06-13T15:43:05.946Z,1.80
2018-06-13T15:45:33.184Z,1.63
2018-06-13T15:48:00.620Z,1.83
2018-06-13T15:50:27.835Z,1.90
2018-06-13T15:52:54.948Z,1.63
2018-06-13T15:55:22.076Z,2.00
2018-06-13T15:57:49.216Z,1.80
2018-06-13T16:00:16.364Z,1.90
2018-06-13T16:02:43.597Z,1.70
2018-06-13T16:05:10.834Z,2.07
2018-06-13T16:07:38.206Z,1.83
2018-06-13T16:10:05.827Z,1.80
2018-06-13T16:12:32.985Z,2.10
2018-06-13T16:15:00.181Z,1.77
2018-06-13T16:17:27.374Z,2.10
2018-06-13T16:19:54.839Z,2.10
2018-06-13T16:22:22.984Z,2.17
2018-06-13T16:24:50.153Z,1.93
2018-06-13T16:27:17.288Z,2.20
2018-06-13T16:29:45.510Z,2.00
2018-06-13T16:32:12.770Z,2.10
2018-06-13T16:34:40.133Z,2.10
2018-06-13T16:37:07.632Z,2.20
2018-06-13T16:39:35.309Z,1.70
2018-06-13T16:42:02.492Z,1.90
2018-06-13T16:44:29.637Z,2.20
2018-06-13T16:46:56.916Z,1.80
2018-06-13T16:49:24.076Z,2.00
2018-06-13T16:51:54.309Z,2.10
2018-06-13T16:54:33.051Z,2.30
2018-06-13T16:57:00.268Z,1.90
2018-06-13T16:59:27.371Z,1.90
2018-06-13T17:01:54.901Z,2.30
2018-06-13T17:04:22.101Z,2.17
2018-06-13T17:06:49.233Z,2.37
2018-06-13T17:09:16.495Z,2.20
2018-06-13T17:11:43.741Z,2.40
2018-06-13T17:14:10.928Z,1.93
2018-06-13T17:16:38.452Z,2.00
2018-06-13T17:19:05.821Z,2.10
2018-06-13T17:21:33.048Z,2.13
2018-06-13T17:24:00.215Z,2.33
2018-06-13T17:26:29.336Z,2.00
2018-06-13T17:28:58.475Z,1.80
2018-06-13T17:31:25.832Z,2.30
2018-06-13T17:33:52.982Z,1.80
2018-06-13T17:36:20.096Z,2.20
2018-06-13T17:38:47.278Z,2.20
2018-06-13T17:41:14.448Z,2.00
2018-06-13T17:43:41.657Z,2.30
2018-06-13T17:46:08.976Z,2.17
2018-06-13T17:48:36.320Z,2.10
2018-06-13T17:51:04.791Z,2.30
2018-06-13T17:53:31.965Z,2.10
2018-06-13T17:55:59.082Z,2.60
2018-06-13T17:58:26.211Z,2.30
2018-06-13T18:00:53.784Z,2.60
2018-06-13T18:03:26.687Z,2.70
2018-06-13T18:05:53.821Z,2.33
2018-06-13T18:08:21.078Z,2.57
2018-06-13T18:10:48.272Z,2.17
2018-06-13T18:13:17.754Z,2.33
2018-06-13T18:15:45.119Z,2.20
2018-06-13T18:18:12.470Z,2.20
2018-06-13T18:20:39.732Z,2.67
2018-06-13T18:23:07.379Z,2.30
2018-06-13T18:25:34.675Z,2.43
2018-06-13T18:28:01.874Z,2.70
2018-06-13T18:30:29.000Z,2.40
2018-06-13T18:32:57.181Z,2.20
2018-06-13T18:35:24.765Z,2.63
2018-06-13T18:37:54.002Z,2.70
2018-06-13T18:40:21.134Z,2.30
2018-06-13T18:42:48.388Z,2.30
2018-06-13T18:45:15.480Z,2.60
2018-06-13T18:47:42.845Z,2.30
2018-06-13T18:50:10.186Z,2.47
2018-06-13T18:52:37.857Z,2.23
2018-06-13T18:55:06.595Z,2.30
2018-06-13T18:57:34.274Z,2.57
2018-06-13T19:00:01.501Z,2.23
2018-06-13T19:02:30.781Z,2.77
2018-06-13T19:04:57.948Z,2.60
2018-06-13T19:07:25.148Z,2.50
2018-06-13T19:09:54.065Z,2.47
2018-06-13T19:12:22.806Z,3.03
2018-06-13T19:14:50.680Z,4.00
2018-06-13T19:17:18.321Z,6.97
2018-06-13T19:19:46.296Z,7.40
2018-06-13T19:22:15.908Z,4.27
2018-06-13T19:24:45.191Z,3.90
2018-06-13T19:27:13.908Z,4.13
2018-06-13T19:29:42.481Z,2.90
2018-06-13T19:32:09.781Z,2.60
2018-06-13T19:34:37.066Z,2.80
2018-06-13T19:37:04.337Z,2.50
2018-06-13T19:39:32.161Z,2.60
2018-06-13T19:41:59.350Z,2.40
2018-06-13T19:44:26.612Z,2.30
2018-06-13T19:46:58.827Z,2.13
2018-06-13T19:49:26.086Z,2.70
2018-06-13T19:51:53.238Z,3.03
2018-06-13T19:54:26.216Z,2.93
2018-06-13T19:56:53.329Z,3.07
2018-06-13T19:59:21.073Z,2.60
2018-06-13T20:01:51.586Z,2.90
2018-06-13T20:04:25.057Z,2.80
2018-06-13T20:06:52.407Z,3.37
2018-06-13T20:09:20.471Z,2.70
2018-06-13T20:11:49.899Z,3.63
2018-06-13T20:14:23.219Z,2.90
2018-06-13T20:16:56.685Z,2.83
2018-06-13T20:19:30.639Z,3.47
2018-06-13T20:21:59.192Z,2.90
2018-06-13T20:24:26.677Z,2.77
2018-06-13T20:26:59.711Z,3.37
2018-06-13T20:29:32.835Z,2.90
2018-06-13T20:32:00.066Z,2.63
2018-06-13T20:34:27.982Z,2.80
2018-06-13T20:36:55.114Z,2.93
2018-06-13T20:39:22.937Z,2.53
2018-06-13T20:41:50.632Z,2.90
2018-06-13T20:44:18.088Z,2.90
2018-06-13T20:46:45.559Z,2.90
2018-06-13T20:49:13.338Z,2.40
2018-06-13T20:51:40.632Z,2.77
2018-06-13T20:54:07.787Z,2.60
2018-06-13T20:56:34.901Z,2.47
2018-06-13T20:59:02.029Z,2.60
2018-06-13T21:01:29.213Z,2.63
2018-06-13T21:03:56.332Z,2.70
2018-06-13T21:06:23.427Z,2.90
2018-06-13T21:08:50.599Z,2.73
2018-06-13T21:11:17.900Z,3.33
2018-06-13T21:13:45.459Z,3.20
2018-06-13T21:16:12.881Z,2.50
2018-06-13T21:18:40.038Z,2.90
2018-06-13T21:21:07.140Z,2.80
2018-06-13T21:23:34.333Z,3.13
2018-06-13T21:26:01.464Z,2.90
2018-06-13T21:28:29.090Z,2.67
2018-06-13T21:30:56.350Z,3.10
2018-06-13T21:33:23.468Z,3.13
2018-06-13T21:35:50.723Z,3.07
2018-06-13T21:38:18.018Z,3.17
2018-06-13T21:40:45.423Z,2.73
2018-06-13T21:43:13.071Z,2.50
2018-06-13T21:45:40.295Z,3.13
2018-06-13T21:48:07.419Z,3.20
2018-06-13T21:50:34.533Z,3.00
2018-06-13T21:53:01.737Z,2.57
2018-06-13T21:55:28.857Z,2.83
2018-06-13T21:57:56.000Z,2.50
2018-06-13T22:00:23.207Z,3.00
2018-06-13T22:02:50.363Z,2.70
2018-06-13T22:05:17.604Z,2.77
2018-06-13T22:07:44.998Z,2.53
2018-06-13T22:10:12.255Z,2.97
2018-06-13T22:12:39.500Z,2.30
2018-06-13T22:15:11.284Z,2.73
2018-06-13T22:17:38.508Z,2.60
2018-06-13T22:20:05.636Z,3.00
2018-06-13T22:22:32.780Z,2.80
2018-06-13T22:24:59.904Z,2.90
2018-06-13T22:27:27.063Z,2.73
2018-06-13T22:29:54.251Z,2.80
2018-06-13T22:32:21.372Z,2.73
2018-06-13T22:34:48.612Z,2.80
2018-06-13T22:37:15.848Z,2.80
2018-06-13T22:39:43.246Z,2.90
2018-06-13T22:42:10.488Z,2.40
2018-06-13T22:44:37.684Z,2.87
2018-06-13T22:47:04.925Z,2.73
2018-06-13T22:49:32.055Z,2.80
2018-06-13T22:51:59.263Z,2.70
2018-06-13T22:54:26.436Z,3.03
2018-06-13T22:56:53.568Z,2.30
2018-06-13T22:59:20.772Z,3.07
2018-06-13T23:01:47.988Z,2.77
2018-06-13T23:04:15.305Z,2.80
2018-06-13T23:06:42.594Z,2.70
2018-06-13T23:09:09.698Z,2.57
2018-06-13T23:11:36.889Z,2.50
2018-06-13T23:14:04.073Z,2.57
2018-06-13T23:16:31.253Z,2.73
2018-06-13T23:18:58.371Z,2.70
2018-06-13T23:21:25.554Z,2.67
2018-06-13T23:23:52.648Z,2.53
2018-06-13T23:26:19.878Z,2.57
2018-06-13T23:28:47.119Z,2.60
2018-06-13T23:31:14.419Z,2.87
2018-06-13T23:33:41.704Z,2.70
2018-06-13T23:36:08.872Z,2.50
2018-06-13T23:38:36.997Z,2.80
2018-06-13T23:41:05.279Z,2.77
2018-06-13T23:43:32.485Z,2.40
2018-06-13T23:45:59.604Z,2.40
2018-06-13T23:48:26.824Z,2.33
2018-06-13T23:50:53.971Z,3.20
2018-06-13T23:53:21.143Z,2.47
2018-06-13T23:55:48.372Z,2.50
2018-06-13T23:58:15.670Z,2.70
